Time,TemperatureF,DewpointF,PressureIn,WindDirection,WindDirectionDegrees,WindSpeedMPH,WindSpeedGustMPH,Humidity,HourlyPrecipIn,Conditions,Clouds,dailyrainin,SolarRadiationWatts/m^2,SoftwareType,DateUTC
2013-06-22 00:01:00,66.7,62.7,30.28,NE,44,0.0,1.0,87,0.00,,,0.00,0,Wunderground v.1.15,2013-06-22 04:01:00,
2013-06-22 00:02:00,66.7,62.7,30.28,NE,42,0.0,1.0,87,0.00,,,0.00,0,Wunderground v.1.15,2013-06-22 04:02:00,
2013-06-22 00:03:00,66.6,62.6,30.28,NE,44,0.0,1.0,87,0.00,,,0.00,0,Wunderground v.1.15,2013-06-22 04:03:00,
2013-06-22 00:05:00,66.6,62.9,30.28,NE,44,0.0,1.0,88,0.00,,,0.00,0,Wunderground v.1.15,2013-06-22 04:05:00,
2013-06-22 00:09:00,66.5,62.8,30.28,NE,43,0.0,1.0,88,0.00,,,0.00,0,Wunderground v.1.15,2013-06-22 04:09:00,
2013-06-22 00:14:00,66.3,62.3,30.28,NE,43,0.0,0.0,87,0.00,,,0.00,0,Wunderground v.1.15,2013-06-22 04:14:00,
2013-06-22 00:19:00,66.1,62.4,30.28,NE,43,0.0,0.0,88,0.00,,,0.00,0,Wunderground v.1.15,2013-06-22 04:19:00,
2013-06-22 00:24:00,65.9,62.2,30.28,NE,45,0.0,0.0,88,0.00,,,0.00,0,Wunderground v.1.15,2013-06-22 04:24:00,
2013-06-22 00:29:00,65.8,62.5,30.28,NE,44,0.0,0.0,89,0.00,,,0.00,0,Wunderground v.1.15,2013-06-22 04:29:00,
2013-06-22 00:35:00,65.7,62.4,30.28,NE,46,0.0,0.0,89,0.00,,,0.00,0,Wunderground v.1.15,2013-06-22 04:35:00,
2013-06-22 00:40:00,65.6,62.3,30.28,NE,44,0.0,0.0,89,0.00,,,0.00,0,Wunderground v.1.15,2013-06-22 04:40:00,
2013-06-22 00:46:00,65.6,62.3,30.28,NE,44,0.0,0.0,89,0.00,,,0.00,0,Wunderground v.1.15,2013-06-22 04:46:00,
2013-06-22 00:51:00,65.6,62.3,30.28,NE,44,0.0,0.0,89,0.00,,,0.00,0,Wunderground v.1.15,2013-06-22 04:51:00,
2013-06-22 00:56:00,65.7,62.7,30.28,NE,44,0.0,0.0,90,0.00,,,0.00,0,Wunderground v.1.15,2013-06-22 04:56:00,
2013-06-22 01:02:00,65.6,62.3,30.28,NE,44,0.0,0.0,89,0.00,,,0.00,0,Wunderground v.1.15,2013-06-22 05:02:00,
2013-06-22 01:07:00,65.7,62.7,30.28,NE,42,0.0,0.0,90,0.00,,,0.00,0,Wunderground v.1.15,2013-06-22 05:07:00,
2013-06-22 01:13:00,65.7,62.7,30.28,NE,43,0.0,1.0,90,0.00,,,0.00,0,Wunderground v.1.15,2013-06-22 05:13:00,
2013-06-22 01:18:00,65.8,62.8,30.28,NE,45,0.0,2.0,90,0.00,,,0.00,0,Wunderground v.1.15,2013-06-22 05:18:00,
2013-06-22 01:23:00,65.8,62.8,30.27,NE,44,1.0,2.0,90,0.00,,,0.00,0,Wunderground v.1.15,2013-06-22 05:23:00,
2013-06-22 01:29:00,65.8,62.8,30.27,South,180,2.0,5.0,90,0.00,,,0.00,0,Wunderground v.1.15,2013-06-22 05:29:00,
2013-06-22 01:34:00,65.8,62.8,30.27,SSW,213,3.0,5.0,90,0.00,,,0.00,0,Wunderground v.1.15,2013-06-22 05:34:00,
2013-06-22 01:40:00,65.8,62.8,30.27,SSW,211,3.0,3.0,90,0.00,,,0.00,0,Wunderground v.1.15,2013-06-22 05:40:00,
2013-06-22 01:45:00,65.8,62.8,30.27,SSW,212,2.0,3.0,90,0.00,,,0.00,0,Wunderground v.1.15,2013-06-22 05:45:00,
2013-06-22 01:50:00,65.7,62.7,30.27,SSW,211,2.0,2.0,90,0.00,,,0.00,0,Wunderground v.1.15,2013-06-22 05:50:00,
2013-06-22 01:55:00,65.7,62.7,30.27,SW,215,3.0,3.0,90,0.00,,,0.00,0,Wunderground v.1.15,2013-06-22 05:55:00,
2013-06-22 02:00:00,65.6,62.6,30.27,SW,215,2.0,4.0,90,0.00,,,0.00,0,Wunderground v.1.15,2013-06-22 06:00:00,
2013-06-22 02:06:00,65.4,62.4,30.26,SW,215,2.0,4.0,90,0.00,,,0.00,0,Wunderground v.1.15,2013-06-22 06:06:00,
2013-06-22 02:11:00,65.3,62.3,30.26,SSW,212,1.0,2.0,90,0.00,,,0.00,0,Wunderground v.1.15,2013-06-22 06:11:00,
2013-06-22 02:16:00,65.2,62.2,30.26,SSW,213,1.0,2.0,90,0.00,,,0.00,0,Wunderground v.1.15,2013-06-22 06:16:00,
2013-06-22 02:21:00,65.0,62.0,30.26,SSW,213,1.0,1.0,90,0.00,,,0.00,0,Wunderground v.1.15,2013-06-22 06:21:00,
2013-06-22 02:27:00,64.8,61.8,30.27,SW,216,0.0,1.0,90,0.00,,,0.00,0,Wunderground v.1.15,2013-06-22 06:27:00,
2013-06-22 02:32:00,64.7,61.7,30.27,SW,215,0.0,0.0,90,0.00,,,0.00,0,Wunderground v.1.15,2013-06-22 06:32:00,
2013-06-22 02:37:00,64.6,61.6,30.27,SW,217,0.0,0.0,90,0.00,,,0.00,0,Wunderground v.1.15,2013-06-22 06:37:00,
2013-06-22 02:43:00,64.5,61.8,30.27,NNE,24,1.0,3.0,91,0.00,,,0.00,0,Wunderground v.1.15,2013-06-22 06:43:00,
2013-06-22 02:48:00,64.4,61.7,30.27,NNE,22,2.0,3.0,91,0.00,,,0.00,0,Wunderground v.1.15,2013-06-22 06:48:00,
2013-06-22 02:53:00,64.3,61.6,30.27,NNE,23,1.0,1.0,91,0.00,,,0.00,0,Wunderground v.1.15,2013-06-22 06:53:00,
2013-06-22 02:59:00,64.2,61.5,30.26,NNE,23,0.0,1.0,91,0.00,,,0.00,0,Wunderground v.1.15,2013-06-22 06:59:00,
2013-06-22 03:05:00,64.0,61.3,30.26,NNE,22,0.0,2.0,91,0.00,,,0.00,0,Wunderground v.1.15,2013-06-22 07:05:00,
2013-06-22 03:10:00,63.9,61.2,30.26,NNE,19,1.0,1.0,91,0.00,,,0.00,0,Wunderground v.1.15,2013-06-22 07:10:00,
2013-06-22 03:15:00,63.8,61.1,30.26,NNE,27,2.0,4.0,91,0.00,,,0.00,0,Wunderground v.1.15,2013-06-22 07:15:00,
2013-06-22 03:21:00,63.7,61.0,30.26,NNE,28,1.0,1.0,91,0.00,,,0.00,0,Wunderground v.1.15,2013-06-22 07:21:00,
2013-06-22 03:26:00,63.5,60.8,30.27,NNE,26,1.0,3.0,91,0.00,,,0.00,0,Wunderground v.1.15,2013-06-22 07:26:00,
2013-06-22 03:31:00,63.4,60.7,30.27,NNE,26,1.0,1.0,91,0.00,,,0.00,0,Wunderground v.1.15,2013-06-22 07:31:00,
2013-06-22 03:37:00,63.2,60.5,30.27,NNE,27,0.0,1.0,91,0.00,,,0.00,0,Wunderground v.1.15,2013-06-22 07:37:00,
2013-06-22 03:42:00,63.1,60.7,30.27,NNE,27,0.0,0.0,92,0.00,,,0.00,0,Wunderground v.1.15,2013-06-22 07:42:00,
2013-06-22 03:47:00,63.0,60.3,30.27,NNE,26,0.0,0.0,91,0.00,,,0.00,0,Wunderground v.1.15,2013-06-22 07:47:00,
2013-06-22 03:53:00,62.7,60.0,30.27,NNE,26,0.0,0.0,91,0.00,,,0.00,0,Wunderground v.1.15,2013-06-22 07:53:00,
2013-06-22 03:58:00,62.6,59.9,30.27,NNE,26,0.0,2.0,91,0.00,,,0.00,0,Wunderground v.1.15,2013-06-22 07:58:00,
2013-06-22 04:04:00,62.4,60.0,30.27,NNE,26,1.0,1.0,92,0.00,,,0.00,0,Wunderground v.1.15,2013-06-22 08:04:00,
2013-06-22 04:09:00,62.3,59.9,30.27,NNE,26,0.0,1.0,92,0.00,,,0.00,0,Wunderground v.1.15,2013-06-22 08:09:00,
2013-06-22 04:15:00,62.1,59.7,30.27,NNE,26,0.0,2.0,92,0.00,,,0.00,0,Wunderground v.1.15,2013-06-22 08:15:00,
2013-06-22 04:20:00,62.1,59.7,30.27,NE,40,1.0,1.0,92,0.00,,,0.00,0,Wunderground v.1.15,2013-06-22 08:20:00,
2013-06-22 04:25:00,62.1,59.7,30.27,NE,40,1.0,1.0,92,0.00,,,0.00,0,Wunderground v.1.15,2013-06-22 08:25:00,
2013-06-22 04:31:00,62.0,59.6,30.26,NE,44,0.0,0.0,92,0.00,,,0.00,0,Wunderground v.1.15,2013-06-22 08:31:00,
2013-06-22 04:36:00,61.9,59.9,30.26,NNW,337,1.0,3.0,93,0.00,,,0.00,0,Wunderground v.1.15,2013-06-22 08:36:00,
2013-06-22 04:41:00,61.8,59.8,30.27,NNW,337,2.0,2.0,93,0.00,,,0.00,0,Wunderground v.1.15,2013-06-22 08:41:00,
2013-06-22 04:47:00,61.8,59.8,30.27,NNW,337,1.0,2.0,93,0.00,,,0.00,0,Wunderground v.1.15,2013-06-22 08:47:00,
2013-06-22 04:52:00,61.8,59.8,30.27,NNW,340,0.0,0.0,93,0.00,,,0.00,0,Wunderground v.1.15,2013-06-22 08:52:00,
2013-06-22 04:57:00,61.6,59.3,30.27,NNW,338,0.0,0.0,92,0.00,,,0.00,0,Wunderground v.1.15,2013-06-22 08:57:00,
2013-06-22 05:03:00,61.4,59.1,30.26,North,360,0.0,1.0,92,0.00,,,0.00,0,Wunderground v.1.15,2013-06-22 09:03:00,
2013-06-22 05:09:00,61.3,59.3,30.27,NNW,336,0.0,1.0,93,0.00,,,0.00,0,Wunderground v.1.15,2013-06-22 09:09:00,
2013-06-22 05:14:00,61.3,59.3,30.27,NNW,338,0.0,2.0,93,0.00,,,0.00,0,Wunderground v.1.15,2013-06-22 09:14:00,
2013-06-22 05:19:00,61.2,59.2,30.27,NNW,338,1.0,2.0,93,0.00,,,0.00,0,Wunderground v.1.15,2013-06-22 09:19:00,
2013-06-22 05:25:00,61.1,59.1,30.27,NNW,340,0.0,1.0,93,0.00,,,0.00,0,Wunderground v.1.15,2013-06-22 09:25:00,
2013-06-22 05:30:00,61.0,59.0,30.27,NNW,337,0.0,0.0,93,0.00,,,0.00,0,Wunderground v.1.15,2013-06-22 09:30:00,
2013-06-22 05:36:00,60.9,58.9,30.27,WSW,247,0.0,3.0,93,0.00,,,0.00,0,Wunderground v.1.15,2013-06-22 09:36:00,
2013-06-22 05:41:00,60.8,58.8,30.27,WSW,250,1.0,3.0,93,0.00,,,0.00,0,Wunderground v.1.15,2013-06-22 09:41:00,
2013-06-22 05:46:00,60.7,58.7,30.27,WSW,252,1.0,3.0,93,0.00,,,0.00,0,Wunderground v.1.15,2013-06-22 09:46:00,
2013-06-22 05:52:00,60.6,58.6,30.27,WSW,249,1.0,2.0,93,0.00,,,0.00,5,Wunderground v.1.15,2013-06-22 09:52:00,
2013-06-22 05:57:00,60.5,58.5,30.27,WSW,251,0.0,2.0,93,0.00,,,0.00,7,Wunderground v.1.15,2013-06-22 09:57:00,
2013-06-22 06:03:00,60.5,58.5,30.27,WSW,249,0.0,0.0,93,0.00,,,0.00,9,Wunderground v.1.15,2013-06-22 10:03:00,
2013-06-22 06:08:00,60.7,59.0,30.28,WSW,249,0.0,0.0,94,0.00,,,0.00,12,Wunderground v.1.15,2013-06-22 10:08:00,
2013-06-22 06:13:00,60.8,59.1,30.28,North,360,0.0,0.0,94,0.00,,,0.00,14,Wunderground v.1.15,2013-06-22 10:13:00,
2013-06-22 06:19:00,60.9,59.2,30.28,North,360,0.0,0.0,94,0.00,,,0.00,18,Wunderground v.1.15,2013-06-22 10:19:00,
2013-06-22 06:24:00,61.2,59.5,30.28,WSW,252,1.0,2.0,94,0.00,,,0.00,30,Wunderground v.1.15,2013-06-22 10:24:00,
2013-06-22 06:30:00,61.3,59.6,30.27,North,360,1.0,2.0,94,0.00,,,0.00,35,Wunderground v.1.15,2013-06-22 10:30:00,
2013-06-22 06:35:00,61.4,59.7,30.27,WSW,254,1.0,2.0,94,0.00,,,0.00,35,Wunderground v.1.15,2013-06-22 10:35:00,
2013-06-22 06:40:00,61.5,59.8,30.27,North,360,1.0,1.0,94,0.00,,,0.00,35,Wunderground v.1.15,2013-06-22 10:40:00,
2013-06-22 06:45:00,61.5,59.8,30.27,WSW,250,0.0,1.0,94,0.00,,,0.00,39,Wunderground v.1.15,2013-06-22 10:45:00,
2013-06-22 06:51:00,61.7,60.3,30.27,North,360,1.0,2.0,95,0.00,,,0.00,46,Wunderground v.1.15,2013-06-22 10:51:00,
2013-06-22 06:56:00,61.9,60.5,30.27,WSW,252,1.0,2.0,95,0.00,,,0.00,56,Wunderground v.1.15,2013-06-22 10:56:00,
2013-06-22 07:01:00,62.0,60.6,30.27,WSW,251,0.0,1.0,95,0.00,,,0.00,72,Wunderground v.1.15,2013-06-22 11:01:00,
2013-06-22 07:07:00,62.2,60.8,30.27,North,360,0.0,1.0,95,0.00,,,0.00,79,Wunderground v.1.15,2013-06-22 11:07:00,
2013-06-22 07:13:00,62.3,60.8,30.27,SW,235,1.0,2.0,95,0.00,,,0.00,98,Wunderground v.1.15,2013-06-22 11:13:00,
2013-06-22 07:18:00,62.4,60.9,30.27,SW,231,1.0,2.0,95,0.00,,,0.00,98,Wunderground v.1.15,2013-06-22 11:18:00,
2013-06-22 07:23:00,62.3,60.8,30.27,SW,229,1.0,1.0,95,0.00,,,0.00,104,Wunderground v.1.15,2013-06-22 11:23:00,
2013-06-22 07:29:00,62.4,60.9,30.26,SW,229,1.0,3.0,95,0.00,,,0.00,130,Wunderground v.1.15,2013-06-22 11:29:00,
2013-06-22 07:34:00,62.6,61.1,30.26,North,360,2.0,3.0,95,0.00,,,0.00,134,Wunderground v.1.15,2013-06-22 11:34:00,
2013-06-22 07:39:00,62.7,61.2,30.26,North,360,1.0,3.0,95,0.00,,,0.00,132,Wunderground v.1.15,2013-06-22 11:39:00,
2013-06-22 07:45:00,62.9,61.4,30.26,SW,229,0.0,1.0,95,0.00,,,0.00,153,Wunderground v.1.15,2013-06-22 11:45:00,
2013-06-22 07:50:00,63.4,61.9,30.26,SW,228,0.0,0.0,95,0.00,,,0.00,295,Wunderground v.1.15,2013-06-22 11:50:00,
2013-06-22 07:55:00,63.9,62.1,30.27,SW,229,0.0,0.0,94,0.00,,,0.00,311,Wunderground v.1.15,2013-06-22 11:55:00,
2013-06-22 08:00:00,64.5,62.4,30.26,ESE,115,0.0,0.0,93,0.00,,,0.00,332,Wunderground v.1.15,2013-06-22 12:00:00,
2013-06-22 08:06:00,65.2,62.5,30.26,ESE,119,0.0,1.0,91,0.00,,,0.00,350,Wunderground v.1.15,2013-06-22 12:06:00,
2013-06-22 08:11:00,66.1,63.4,30.26,ESE,115,0.0,0.0,91,0.00,,,0.00,360,Wunderground v.1.15,2013-06-22 12:11:00,
2013-06-22 08:16:00,66.8,63.1,30.26,ENE,58,0.0,2.0,88,0.00,,,0.00,381,Wunderground v.1.15,2013-06-22 12:16:00,
2013-06-22 08:21:00,67.3,63.6,30.26,ENE,71,2.0,3.0,88,0.00,,,0.00,401,Wunderground v.1.15,2013-06-22 12:21:00,
2013-06-22 08:27:00,67.5,63.2,30.27,ENE,75,3.0,3.0,86,0.00,,,0.00,417,Wunderground v.1.15,2013-06-22 12:27:00,
2013-06-22 08:32:00,68.0,63.7,30.27,ENE,73,3.0,3.0,86,0.00,,,0.00,431,Wunderground v.1.15,2013-06-22 12:32:00,
2013-06-22 08:38:00,68.5,63.8,30.27,ENE,65,2.0,3.0,85,0.00,,,0.00,454,Wunderground v.1.15,2013-06-22 12:38:00,
2013-06-22 08:44:00,69.0,64.0,30.27,NE,46,2.0,3.0,84,0.00,,,0.00,469,Wunderground v.1.15,2013-06-22 12:44:00,
2013-06-22 08:49:00,69.4,64.4,30.27,NE,45,2.0,4.0,84,0.00,,,0.00,478,Wunderground v.1.15,2013-06-22 12:49:00,
2013-06-22 08:54:00,69.9,64.5,30.27,NE,53,3.0,5.0,83,0.00,,,0.00,468,Wunderground v.1.15,2013-06-22 12:54:00,
2013-06-22 09:00:00,70.6,64.8,30.28,ENE,63,3.0,3.0,82,0.00,,,0.00,517,Wunderground v.1.15,2013-06-22 13:00:00,
2013-06-22 09:06:00,71.1,64.6,30.28,North,5,3.0,6.0,80,0.00,,,0.00,526,Wunderground v.1.15,2013-06-22 13:06:00,
2013-06-22 09:11:00,71.7,65.9,30.28,East,86,3.0,6.0,82,0.00,,,0.00,541,Wunderground v.1.15,2013-06-22 13:11:00,
2013-06-22 09:16:00,72.2,65.0,30.28,ENE,75,4.0,6.0,78,0.00,,,0.00,552,Wunderground v.1.15,2013-06-22 13:16:00,
2013-06-22 09:21:00,72.6,65.7,30.28,ENE,64,4.0,4.0,79,0.00,,,0.00,580,Wunderground v.1.15,2013-06-22 13:21:00,
2013-06-22 09:27:00,73.3,65.7,30.28,ENE,70,4.0,6.0,77,0.00,,,0.00,601,Wunderground v.1.15,2013-06-22 13:27:00,
2013-06-22 09:32:00,73.8,65.0,30.29,ENE,78,4.0,4.0,74,0.00,,,0.00,605,Wunderground v.1.15,2013-06-22 13:32:00,
2013-06-22 09:38:00,74.6,65.4,30.29,East,82,2.0,4.0,73,0.00,,,0.00,631,Wunderground v.1.15,2013-06-22 13:38:00,
2013-06-22 09:43:00,75.2,64.7,30.29,East,80,1.0,2.0,70,0.00,,,0.00,633,Wunderground v.1.15,2013-06-22 13:43:00,
2013-06-22 09:49:00,75.9,66.2,30.28,East,100,1.0,3.0,72,0.00,,,0.00,645,Wunderground v.1.15,2013-06-22 13:49:00,
2013-06-22 09:54:00,76.5,66.0,30.28,SE,125,1.0,2.0,70,0.00,,,0.00,656,Wunderground v.1.15,2013-06-22 13:54:00,
2013-06-22 09:59:00,76.9,64.7,30.28,SE,127,1.0,2.0,66,0.00,,,0.00,668,Wunderground v.1.15,2013-06-22 13:59:00,
2013-06-22 10:05:00,77.4,65.6,30.28,SE,128,1.0,2.0,67,0.00,,,0.00,682,Wunderground v.1.15,2013-06-22 14:05:00,
2013-06-22 10:11:00,78.0,65.7,30.28,SE,129,1.0,1.0,66,0.00,,,0.00,701,Wunderground v.1.15,2013-06-22 14:11:00,
2013-06-22 10:16:00,78.5,65.8,30.28,SW,223,0.0,1.0,65,0.00,,,0.00,712,Wunderground v.1.15,2013-06-22 14:16:00,
2013-06-22 10:22:00,78.9,66.6,30.28,WSW,254,1.0,3.0,66,0.00,,,0.00,722,Wunderground v.1.15,2013-06-22 14:22:00,
2013-06-22 10:27:00,79.0,66.2,30.28,SW,219,2.0,3.0,65,0.00,,,0.00,733,Wunderground v.1.15,2013-06-22 14:27:00,
2013-06-22 10:32:00,79.3,66.1,30.28,SW,218,1.0,2.0,64,0.00,,,0.00,747,Wunderground v.1.15,2013-06-22 14:32:00,
2013-06-22 10:38:00,79.8,66.1,30.28,North,360,1.0,2.0,63,0.00,,,0.00,761,Wunderground v.1.15,2013-06-22 14:38:00,
2013-06-22 10:43:00,80.4,67.1,30.28,West,260,1.0,4.0,64,0.00,,,0.00,772,Wunderground v.1.15,2013-06-22 14:43:00,
2013-06-22 10:49:00,80.7,66.5,30.28,West,266,2.0,4.0,62,0.00,,,0.00,788,Wunderground v.1.15,2013-06-22 14:49:00,
2013-06-22 10:54:00,80.9,66.7,30.28,WSW,248,1.0,2.0,62,0.00,,,0.00,798,Wunderground v.1.15,2013-06-22 14:54:00,
2013-06-22 10:59:00,81.2,66.5,30.28,North,360,0.0,2.0,61,0.00,,,0.00,823,Wunderground v.1.15,2013-06-22 14:59:00,
2013-06-22 11:05:00,81.9,67.1,30.28,East,88,1.0,2.0,61,0.00,,,0.00,863,Wunderground v.1.15,2013-06-22 15:05:00,
2013-06-22 11:11:00,82.3,68.4,30.28,ESE,120,1.0,3.0,63,0.00,,,0.00,905,Wunderground v.1.15,2013-06-22 15:11:00,
2013-06-22 11:16:00,82.6,68.3,30.27,SE,137,1.0,4.0,62,0.00,,,0.00,891,Wunderground v.1.15,2013-06-22 15:16:00,
2013-06-22 11:22:00,83.0,67.2,30.28,SSE,148,2.0,3.0,59,0.00,,,0.00,900,Wunderground v.1.15,2013-06-22 15:22:00,
2013-06-22 11:27:00,83.1,67.8,30.28,SE,137,2.0,3.0,60,0.00,,,0.00,935,Wunderground v.1.15,2013-06-22 15:27:00,
2013-06-22 11:32:00,83.2,67.4,30.28,South,184,2.0,2.0,59,0.00,,,0.00,914,Wunderground v.1.15,2013-06-22 15:32:00,
2013-06-22 11:38:00,83.8,68.4,30.27,ESE,102,1.0,5.0,60,0.00,,,0.00,1021,Wunderground v.1.15,2013-06-22 15:38:00,
2013-06-22 11:43:00,84.3,67.9,30.27,SSE,164,2.0,4.0,58,0.00,,,0.00,1021,Wunderground v.1.15,2013-06-22 15:43:00,
2013-06-22 11:48:00,84.5,69.6,30.27,ESE,116,1.0,4.0,61,0.00,,,0.00,891,Wunderground v.1.15,2013-06-22 15:48:00,
2013-06-22 11:54:00,84.7,68.8,30.27,South,180,1.0,4.0,59,0.00,,,0.00,991,Wunderground v.1.15,2013-06-22 15:54:00,
2013-06-22 11:59:00,85.6,72.0,30.27,SSE,150,3.0,5.0,64,0.00,,,0.00,1034,Wunderground v.1.15,2013-06-22 15:59:00,
2013-06-22 12:05:00,86.0,71.5,30.27,SSE,167,3.0,5.0,62,0.00,,,0.00,986,Wunderground v.1.15,2013-06-22 16:05:00,
2013-06-22 12:10:00,86.6,70.1,30.27,SSW,209,3.0,3.0,58,0.00,,,0.00,1005,Wunderground v.1.15,2013-06-22 16:10:00,
2013-06-22 12:15:00,87.2,68.5,30.27,SSE,153,3.0,3.0,54,0.00,,,0.00,1028,Wunderground v.1.15,2013-06-22 16:15:00,
2013-06-22 12:21:00,87.0,69.4,30.26,SSE,148,2.0,2.0,56,0.00,,,0.00,983,Wunderground v.1.15,2013-06-22 16:21:00,
2013-06-22 12:26:00,85.9,70.9,30.26,East,90,2.0,5.0,61,0.00,,,0.00,970,Wunderground v.1.15,2013-06-22 16:26:00,
2013-06-22 12:31:00,85.7,71.2,30.26,South,169,2.0,2.0,62,0.00,,,0.00,991,Wunderground v.1.15,2013-06-22 16:31:00,
2013-06-22 12:37:00,86.4,67.8,30.26,SSE,162,3.0,6.0,54,0.00,,,0.00,977,Wunderground v.1.15,2013-06-22 16:37:00,
2013-06-22 12:43:00,87.1,69.5,30.26,East,88,3.0,6.0,56,0.00,,,0.00,983,Wunderground v.1.15,2013-06-22 16:43:00,
2013-06-22 12:48:00,86.2,68.1,30.26,ESE,104,3.0,6.0,55,0.00,,,0.00,490,Wunderground v.1.15,2013-06-22 16:48:00,
2013-06-22 12:53:00,85.8,67.2,30.26,SE,132,2.0,5.0,54,0.00,,,0.00,995,Wunderground v.1.15,2013-06-22 16:53:00,
2013-06-22 12:59:00,86.4,69.4,30.25,East,90,3.0,7.0,57,0.00,,,0.00,1011,Wunderground v.1.15,2013-06-22 16:59:00,
2013-06-22 13:05:00,86.4,68.3,30.25,NE,55,4.0,4.0,55,0.00,,,0.00,1016,Wunderground v.1.15,2013-06-22 17:05:00,
2013-06-22 13:11:00,86.1,69.1,30.25,East,86,2.0,2.0,57,0.00,,,0.00,345,Wunderground v.1.15,2013-06-22 17:11:00,
2013-06-22 13:16:00,86.3,68.2,30.25,East,96,1.0,2.0,55,0.00,,,0.00,1100,Wunderground v.1.15,2013-06-22 17:16:00,
2013-06-22 13:21:00,86.1,68.6,30.25,SW,221,1.0,4.0,56,0.00,,,0.00,350,Wunderground v.1.15,2013-06-22 17:21:00,
2013-06-22 13:27:00,86.5,68.9,30.25,North,360,2.0,4.0,56,0.00,,,0.00,329,Wunderground v.1.15,2013-06-22 17:27:00,
2013-06-22 13:32:00,87.0,70.4,30.25,South,186,3.0,4.0,58,0.00,,,0.00,388,Wunderground v.1.15,2013-06-22 17:32:00,
2013-06-22 13:38:00,86.9,70.8,30.25,South,187,1.0,4.0,59,0.00,,,0.00,373,Wunderground v.1.15,2013-06-22 17:38:00,
2013-06-22 13:44:00,87.0,67.8,30.25,SE,133,1.0,7.0,53,0.00,,,0.00,276,Wunderground v.1.15,2013-06-22 17:44:00,
2013-06-22 13:49:00,87.1,69.5,30.25,SSE,148,2.0,7.0,56,0.00,,,0.00,1120,Wunderground v.1.15,2013-06-22 17:49:00,
2013-06-22 13:55:00,87.7,69.5,30.25,ESE,116,2.0,4.0,55,0.00,,,0.00,1072,Wunderground v.1.15,2013-06-22 17:55:00,
2013-06-22 14:00:00,88.3,69.5,30.24,ESE,103,2.0,2.0,54,0.00,,,0.00,1028,Wunderground v.1.15,2013-06-22 18:00:00,
2013-06-22 14:06:00,88.5,70.8,30.24,ESE,116,1.0,2.0,56,0.00,,,0.00,991,Wunderground v.1.15,2013-06-22 18:06:00,
2013-06-22 14:12:00,88.4,68.5,30.24,ENE,63,1.0,2.0,52,0.00,,,0.00,243,Wunderground v.1.15,2013-06-22 18:12:00,
2013-06-22 14:17:00,87.9,67.5,30.24,NE,49,1.0,2.0,51,0.00,,,0.00,232,Wunderground v.1.15,2013-06-22 18:17:00,
2013-06-22 14:22:00,87.3,67.0,30.24,NE,49,1.0,2.0,51,0.00,,,0.00,364,Wunderground v.1.15,2013-06-22 18:22:00,
2013-06-22 14:28:00,87.3,67.0,30.23,ENE,76,0.0,2.0,51,0.00,,,0.00,937,Wunderground v.1.15,2013-06-22 18:28:00,
2013-06-22 14:33:00,87.8,66.8,30.23,East,86,1.0,2.0,50,0.00,,,0.00,946,Wunderground v.1.15,2013-06-22 18:33:00,
2013-06-22 14:39:00,87.9,69.7,30.23,South,175,2.0,5.0,55,0.00,,,0.00,918,Wunderground v.1.15,2013-06-22 18:39:00,
2013-06-22 14:44:00,88.7,70.5,30.22,SE,146,3.0,7.0,55,0.00,,,0.00,874,Wunderground v.1.15,2013-06-22 18:44:00,
2013-06-22 14:50:00,89.7,69.2,30.22,SE,135,4.0,5.0,51,0.00,,,0.00,865,Wunderground v.1.15,2013-06-22 18:50:00,
2013-06-22 14:55:00,90.2,70.2,30.22,South,173,4.0,5.0,52,0.00,,,0.00,870,Wunderground v.1.15,2013-06-22 18:55:00,
2013-06-22 15:00:00,90.5,67.5,30.22,SE,138,4.0,4.0,47,0.00,,,0.00,863,Wunderground v.1.15,2013-06-22 19:00:00,
2013-06-22 15:06:00,89.9,68.2,30.22,ESE,115,5.0,6.0,49,0.00,,,0.00,853,Wunderground v.1.15,2013-06-22 19:06:00,
2013-06-22 15:12:00,89.4,66.5,30.21,SE,145,4.0,4.0,47,0.00,,,0.00,828,Wunderground v.1.15,2013-06-22 19:12:00,
2013-06-22 15:17:00,89.5,71.7,30.21,SSE,155,2.0,7.0,56,0.00,,,0.00,870,Wunderground v.1.15,2013-06-22 19:17:00,
2013-06-22 15:23:00,90.0,66.4,30.21,ESE,119,3.0,4.0,46,0.00,,,0.00,239,Wunderground v.1.15,2013-06-22 19:23:00,
2013-06-22 15:28:00,89.4,68.3,30.21,SE,126,3.0,4.0,50,0.00,,,0.00,237,Wunderground v.1.15,2013-06-22 19:28:00,
2013-06-22 15:33:00,88.9,68.4,30.21,SE,134,1.0,2.0,51,0.00,,,0.00,216,Wunderground v.1.15,2013-06-22 19:33:00,
2013-06-22 15:39:00,88.6,67.6,30.21,SSE,155,2.0,5.0,50,0.00,,,0.00,243,Wunderground v.1.15,2013-06-22 19:39:00,
2013-06-22 15:44:00,88.3,67.9,30.21,SE,128,2.0,2.0,51,0.00,,,0.00,271,Wunderground v.1.15,2013-06-22 19:44:00,
2013-06-22 15:50:00,88.0,66.4,30.20,SE,130,1.0,1.0,49,0.00,,,0.00,380,Wunderground v.1.15,2013-06-22 19:50:00,
2013-06-22 15:55:00,88.0,67.0,30.20,SE,130,0.0,1.0,50,0.00,,,0.00,334,Wunderground v.1.15,2013-06-22 19:55:00,
2013-06-22 16:00:00,88.2,68.9,30.20,WSW,240,1.0,4.0,53,0.00,,,0.00,288,Wunderground v.1.15,2013-06-22 20:00:00,
2013-06-22 16:06:00,88.0,67.0,30.20,SW,233,3.0,6.0,50,0.00,,,0.00,287,Wunderground v.1.15,2013-06-22 20:06:00,
2013-06-22 16:12:00,87.8,70.7,30.20,WSW,255,3.0,3.0,57,0.00,,,0.00,267,Wunderground v.1.15,2013-06-22 20:12:00,
2013-06-22 16:17:00,87.3,69.2,30.20,North,360,3.0,4.0,55,0.00,,,0.00,253,Wunderground v.1.15,2013-06-22 20:17:00,
2013-06-22 16:22:00,86.8,70.8,30.20,North,360,3.0,4.0,59,0.00,,,0.00,255,Wunderground v.1.15,2013-06-22 20:22:00,
2013-06-22 16:28:00,86.3,70.3,30.20,West,259,3.0,5.0,59,0.00,,,0.00,272,Wunderground v.1.15,2013-06-22 20:28:00,
2013-06-22 16:33:00,86.1,71.6,30.20,West,259,2.0,2.0,62,0.00,,,0.00,287,Wunderground v.1.15,2013-06-22 20:33:00,
2013-06-22 16:39:00,86.0,71.0,30.20,WSW,249,1.0,3.0,61,0.00,,,0.00,336,Wunderground v.1.15,2013-06-22 20:39:00,
2013-06-22 16:44:00,86.2,72.1,30.19,WSW,242,2.0,3.0,63,0.00,,,0.00,297,Wunderground v.1.15,2013-06-22 20:44:00,
2013-06-22 16:49:00,86.5,71.0,30.19,WSW,237,1.0,3.0,60,0.00,,,0.00,411,Wunderground v.1.15,2013-06-22 20:49:00,
2013-06-22 16:54:00,86.9,72.3,30.19,SSW,204,1.0,4.0,62,0.00,,,0.00,394,Wunderground v.1.15,2013-06-22 20:54:00,
2013-06-22 17:00:00,87.4,72.8,30.18,SW,215,2.0,2.0,62,0.00,,,0.00,654,Wunderground v.1.15,2013-06-22 21:00:00,
2013-06-22 17:06:00,88.1,71.5,30.18,SSW,209,1.0,3.0,58,0.00,,,0.00,605,Wunderground v.1.15,2013-06-22 21:06:00,
2013-06-22 17:11:00,88.9,70.6,30.18,North,360,2.0,2.0,55,0.00,,,0.00,585,Wunderground v.1.15,2013-06-22 21:11:00,
2013-06-22 17:17:00,89.5,70.7,30.17,WSW,245,3.0,5.0,54,0.00,,,0.00,559,Wunderground v.1.15,2013-06-22 21:17:00,
2013-06-22 17:22:00,89.7,68.6,30.18,SSW,200,3.0,5.0,50,0.00,,,0.00,501,Wunderground v.1.15,2013-06-22 21:22:00,
2013-06-22 17:28:00,90.2,69.0,30.17,SSW,211,3.0,5.0,50,0.00,,,0.00,443,Wunderground v.1.15,2013-06-22 21:28:00,
2013-06-22 17:33:00,90.3,68.5,30.17,SSW,210,3.0,3.0,49,0.00,,,0.00,397,Wunderground v.1.15,2013-06-22 21:33:00,
2013-06-22 17:39:00,90.3,68.5,30.17,SSW,205,3.0,4.0,49,0.00,,,0.00,355,Wunderground v.1.15,2013-06-22 21:39:00,
2013-06-22 17:44:00,90.1,69.0,30.17,SW,215,2.0,4.0,50,0.00,,,0.00,369,Wunderground v.1.15,2013-06-22 21:44:00,
2013-06-22 17:49:00,89.5,71.2,30.17,SSW,213,2.0,5.0,55,0.00,,,0.00,345,Wunderground v.1.15,2013-06-22 21:49:00,
2013-06-22 17:55:00,89.1,70.8,30.16,WSW,257,3.0,5.0,55,0.00,,,0.00,334,Wunderground v.1.15,2013-06-22 21:55:00,
2013-06-22 18:00:00,88.6,70.9,30.16,SW,217,3.0,3.0,56,0.00,,,0.00,311,Wunderground v.1.15,2013-06-22 22:00:00,
2013-06-22 18:06:00,88.1,70.4,30.16,SW,220,3.0,5.0,56,0.00,,,0.00,285,Wunderground v.1.15,2013-06-22 22:06:00,
2013-06-22 18:12:00,87.6,71.5,30.16,WSW,246,3.0,4.0,59,0.00,,,0.00,283,Wunderground v.1.15,2013-06-22 22:12:00,
2013-06-22 18:17:00,87.3,71.7,30.16,North,360,2.0,4.0,60,0.00,,,0.00,250,Wunderground v.1.15,2013-06-22 22:17:00,
2013-06-22 18:22:00,86.9,70.8,30.16,West,261,2.0,2.0,59,0.00,,,0.00,223,Wunderground v.1.15,2013-06-22 22:22:00,
2013-06-22 18:28:00,86.3,72.2,30.16,West,261,1.0,2.0,63,0.00,,,0.00,209,Wunderground v.1.15,2013-06-22 22:28:00,
2013-06-22 18:33:00,85.7,72.1,30.16,West,262,1.0,2.0,64,0.00,,,0.00,248,Wunderground v.1.15,2013-06-22 22:33:00,
2013-06-22 18:38:00,85.2,73.0,30.16,North,360,2.0,4.0,67,0.00,,,0.00,229,Wunderground v.1.15,2013-06-22 22:38:00,
2013-06-22 18:44:00,84.7,72.5,30.16,West,273,3.0,4.0,67,0.00,,,0.00,209,Wunderground v.1.15,2013-06-22 22:44:00,
2013-06-22 18:49:00,84.3,72.6,30.16,North,360,3.0,4.0,68,0.00,,,0.00,211,Wunderground v.1.15,2013-06-22 22:49:00,
2013-06-22 18:55:00,83.8,71.2,30.15,WNW,285,2.0,2.0,66,0.00,,,0.00,111,Wunderground v.1.15,2013-06-22 22:55:00,
2013-06-22 19:00:00,83.4,70.8,30.15,North,360,2.0,3.0,66,0.00,,,0.00,95,Wunderground v.1.15,2013-06-22 23:00:00,
2013-06-22 19:06:00,83.0,70.9,30.15,North,360,3.0,3.0,67,0.00,,,0.00,84,Wunderground v.1.15,2013-06-22 23:06:00,
2013-06-22 19:12:00,82.4,71.2,30.15,NW,304,3.0,3.0,69,0.00,,,0.00,76,Wunderground v.1.15,2013-06-22 23:12:00,
2013-06-22 19:17:00,81.9,71.2,30.15,NW,304,3.0,5.0,70,0.00,,,0.00,70,Wunderground v.1.15,2013-06-22 23:17:00,
2013-06-22 19:22:00,81.2,70.5,30.15,WNW,302,4.0,5.0,70,0.00,,,0.00,67,Wunderground v.1.15,2013-06-22 23:22:00,
2013-06-22 19:28:00,80.5,70.2,30.15,NW,311,5.0,6.0,71,0.00,,,0.00,60,Wunderground v.1.15,2013-06-22 23:28:00,
2013-06-22 19:33:00,79.8,69.1,30.15,North,360,5.0,5.0,70,0.00,,,0.00,56,Wunderground v.1.15,2013-06-22 23:33:00,
2013-06-22 19:39:00,79.3,68.7,30.15,West,276,4.0,6.0,70,0.00,,,0.00,53,Wunderground v.1.15,2013-06-22 23:39:00,
2013-06-22 19:44:00,79.0,69.6,30.15,NW,304,3.0,4.0,73,0.00,,,0.00,51,Wunderground v.1.15,2013-06-22 23:44:00,
2013-06-22 19:49:00,78.6,69.2,30.16,NW,304,2.0,4.0,73,0.00,,,0.00,49,Wunderground v.1.15,2013-06-22 23:49:00,
2013-06-22 19:55:00,78.3,69.3,30.16,NW,307,2.0,4.0,74,0.00,,,0.00,47,Wunderground v.1.15,2013-06-22 23:55:00,
2013-06-22 20:00:00,78.0,70.2,30.16,NW,313,2.0,2.0,77,0.00,,,0.00,46,Wunderground v.1.15,2013-06-23 00:00:00,
2013-06-22 20:06:00,77.5,69.7,30.16,NW,313,2.0,3.0,77,0.00,,,0.00,37,Wunderground v.1.15,2013-06-23 00:06:00,
2013-06-22 20:12:00,77.1,70.1,30.16,NW,313,2.0,3.0,79,0.00,,,0.00,28,Wunderground v.1.15,2013-06-23 00:12:00,
2013-06-22 20:17:00,76.5,69.1,30.17,NW,306,3.0,4.0,78,0.00,,,0.00,23,Wunderground v.1.15,2013-06-23 00:17:00,
2013-06-22 20:22:00,76.1,68.4,30.17,NW,309,3.0,3.0,77,0.00,,,0.00,18,Wunderground v.1.15,2013-06-23 00:22:00,
2013-06-22 20:28:00,75.7,68.7,30.17,NW,306,2.0,3.0,79,0.00,,,0.00,14,Wunderground v.1.15,2013-06-23 00:28:00,
2013-06-22 20:33:00,75.4,68.8,30.17,NW,309,2.0,4.0,80,0.00,,,0.00,11,Wunderground v.1.15,2013-06-23 00:33:00,
2013-06-22 20:39:00,75.1,68.5,30.17,North,360,3.0,4.0,80,0.00,,,0.00,7,Wunderground v.1.15,2013-06-23 00:39:00,
2013-06-22 20:44:00,74.8,68.6,30.17,WNW,301,2.0,3.0,81,0.00,,,0.00,0,Wunderground v.1.15,2013-06-23 00:44:00,
2013-06-22 20:49:00,74.4,68.2,30.18,WNW,303,1.0,3.0,81,0.00,,,0.00,0,Wunderground v.1.15,2013-06-23 00:49:00,
2013-06-22 20:55:00,74.0,67.8,30.18,WNW,303,1.0,1.0,81,0.00,,,0.00,0,Wunderground v.1.15,2013-06-23 00:55:00,
2013-06-22 21:00:00,73.7,67.9,30.18,WNW,303,0.0,3.0,82,0.00,,,0.00,0,Wunderground v.1.15,2013-06-23 01:00:00,
2013-06-22 21:06:00,73.3,67.5,30.18,West,268,1.0,3.0,82,0.00,,,0.00,0,Wunderground v.1.15,2013-06-23 01:06:00,
2013-06-22 21:11:00,72.9,67.1,30.18,West,268,2.0,3.0,82,0.00,,,0.00,0,Wunderground v.1.15,2013-06-23 01:11:00,
2013-06-22 21:17:00,72.6,67.1,30.18,West,267,3.0,3.0,83,0.00,,,0.00,0,Wunderground v.1.15,2013-06-23 01:17:00,
2013-06-22 21:22:00,72.4,67.3,30.18,West,266,2.0,2.0,84,0.00,,,0.00,0,Wunderground v.1.15,2013-06-23 01:22:00,
2013-06-22 21:27:00,72.2,67.1,30.19,West,268,1.0,2.0,84,0.00,,,0.00,0,Wunderground v.1.15,2013-06-23 01:27:00,
2013-06-22 21:33:00,71.9,66.8,30.18,West,268,0.0,3.0,84,0.00,,,0.00,0,Wunderground v.1.15,2013-06-23 01:33:00,
2013-06-22 21:38:00,71.6,66.5,30.19,SW,220,2.0,5.0,84,0.00,,,0.00,0,Wunderground v.1.15,2013-06-23 01:38:00,
2013-06-22 21:43:00,71.3,66.6,30.19,SW,236,3.0,4.0,85,0.00,,,0.00,0,Wunderground v.1.15,2013-06-23 01:43:00,
2013-06-22 21:49:00,71.1,66.4,30.19,WSW,247,3.0,6.0,85,0.00,,,0.00,0,Wunderground v.1.15,2013-06-23 01:49:00,
2013-06-22 21:54:00,70.9,66.2,30.19,SW,227,2.0,3.0,85,0.00,,,0.00,0,Wunderground v.1.15,2013-06-23 01:54:00,
2013-06-22 22:00:00,70.8,66.1,30.19,SW,229,2.0,2.0,85,0.00,,,0.00,0,Wunderground v.1.15,2013-06-23 02:00:00,
2013-06-22 22:06:00,70.7,66.0,30.19,SW,226,2.0,2.0,85,0.00,,,0.00,0,Wunderground v.1.15,2013-06-23 02:06:00,
2013-06-22 22:11:00,70.5,65.8,30.19,SW,228,1.0,1.0,85,0.00,,,0.00,0,Wunderground v.1.15,2013-06-23 02:11:00,
2013-06-22 22:17:00,70.3,65.6,30.19,SW,230,1.0,1.0,85,0.00,,,0.00,0,Wunderground v.1.15,2013-06-23 02:17:00,
2013-06-22 22:22:00,70.1,65.4,30.20,SW,228,1.0,2.0,85,0.00,,,0.00,0,Wunderground v.1.15,2013-06-23 02:22:00,
2013-06-22 22:27:00,70.0,65.6,30.20,SW,227,0.0,2.0,86,0.00,,,0.00,0,Wunderground v.1.15,2013-06-23 02:27:00,
2013-06-22 22:33:00,69.9,65.5,30.20,SW,229,1.0,2.0,86,0.00,,,0.00,0,Wunderground v.1.15,2013-06-23 02:33:00,
2013-06-22 22:38:00,69.7,65.3,30.20,SW,225,1.0,2.0,86,0.00,,,0.00,0,Wunderground v.1.15,2013-06-23 02:38:00,
2013-06-22 22:44:00,69.5,65.1,30.20,SW,230,0.0,1.0,86,0.00,,,0.00,0,Wunderground v.1.15,2013-06-23 02:44:00,
2013-06-22 22:49:00,69.4,65.0,30.20,SW,227,0.0,1.0,86,0.00,,,0.00,0,Wunderground v.1.15,2013-06-23 02:49:00,
2013-06-22 22:55:00,69.3,64.9,30.20,SW,232,0.0,0.0,86,0.00,,,0.00,0,Wunderground v.1.15,2013-06-23 02:55:00,
2013-06-22 23:00:00,69.1,64.7,30.20,SW,229,0.0,0.0,86,0.00,,,0.00,0,Wunderground v.1.15,2013-06-23 03:00:00,
2013-06-22 23:06:00,69.0,64.6,30.20,SW,227,0.0,0.0,86,0.00,,,0.00,0,Wunderground v.1.15,2013-06-23 03:06:00,
2013-06-22 23:11:00,68.8,64.4,30.21,SW,228,0.0,0.0,86,0.00,,,0.00,0,Wunderground v.1.15,2013-06-23 03:11:00,
2013-06-22 23:17:00,68.7,64.3,30.20,SW,229,0.0,0.0,86,0.00,,,0.00,0,Wunderground v.1.15,2013-06-23 03:17:00,
2013-06-22 23:22:00,68.5,64.5,30.21,SW,230,0.0,0.0,87,0.00,,,0.00,0,Wunderground v.1.15,2013-06-23 03:22:00,
2013-06-22 23:28:00,68.3,64.3,30.21,SW,229,0.0,0.0,87,0.00,,,0.00,0,Wunderground v.1.15,2013-06-23 03:28:00,
2013-06-22 23:33:00,68.1,64.1,30.21,SW,227,0.0,0.0,87,0.00,,,0.00,0,Wunderground v.1.15,2013-06-23 03:33:00,
2013-06-22 23:39:00,67.9,63.9,30.21,SW,228,0.0,0.0,87,0.00,,,0.00,0,Wunderground v.1.15,2013-06-23 03:39:00,
2013-06-22 23:44:00,67.7,64.0,30.21,SW,229,0.0,0.0,88,0.00,,,0.00,0,Wunderground v.1.15,2013-06-23 03:44:00,
2013-06-22 23:49:00,67.5,63.8,30.21,SW,226,1.0,2.0,88,0.00,,,0.00,0,Wunderground v.1.15,2013-06-23 03:49:00,
2013-06-22 23:55:00,67.3,63.6,30.21,SW,229,2.0,3.0,88,0.00,,,0.00,0,Wunderground v.1.15,2013-06-23 03:55:00,